Time;durP1;ratioP1;P1;durP2;ratioP2;P2;SDS_P1;SDS_P2;PMS_P1;PMS_P2;Temp;Humidity;BMP_temperature;BMP_pressure;BME280_temperature;BME280_humidity;BME280_pressure;Samples;Min_cycle;Max_cycle;Signal;HPM_P1;HPM_P2
2021/11/08 00:00:15;;;;;;;6.97;3.50;;;;;;;14.03;47.44;101607.31;4998207;28;20070;-66
2021/11/08 00:02:45;;;;;;;8.13;2.72;;;;;;;14.01;46.96;101606.53;5009062;28;20092;-66
2021/11/08 00:05:12;;;;;;;7.57;2.83;;;;;;;13.99;47.21;101592.16;4989797;28;20046;-66
2021/11/08 00:07:39;;;;;;;8.18;2.75;;;;;;;13.99;47.31;101611.25;4997956;28;20069;-66
2021/11/08 00:10:09;;;;;;;9.75;3.08;;;;;;;13.99;47.37;101598.50;5002193;28;20048;-66
2021/11/08 00:12:35;;;;;;;7.20;3.10;;;;;;;13.96;47.47;101598.69;5000196;28;20104;-66
2021/11/08 00:15:04;;;;;;;7.95;3.10;;;;;;;13.96;47.26;101601.41;5004635;28;20115;-66
2021/11/08 00:17:47;;;;;;;8.32;2.90;;;;;;;13.93;47.33;101601.63;4991431;28;20045;-66
2021/11/08 00:20:50;;;;;;;8.98;3.40;;;;;;;13.90;47.29;101601.84;4985624;28;20042;-66
2021/11/08 00:23:09;;;;;;;5.97;2.50;;;;;;;13.90;47.62;101598.25;4985326;28;20054;-66
2021/11/08 00:25:39;;;;;;;6.80;2.45;;;;;;;13.92;47.64;101593.53;4991508;28;20050;-66
2021/11/08 00:28:07;;;;;;;9.45;2.83;;;;;;;13.90;47.52;101599.13;5001418;28;20133;-66
2021/11/08 00:30:36;;;;;;;8.77;2.58;;;;;;;13.92;47.55;101596.25;5005050;28;20129;-66
2021/11/08 00:33:07;;;;;;;8.65;2.90;;;;;;;13.91;47.62;101600.00;4999632;28;20053;-66
2021/11/08 00:35:34;;;;;;;11.10;3.45;;;;;;;13.91;47.54;101597.25;4992640;28;20050;-66
2021/11/08 00:38:00;;;;;;;8.45;3.50;;;;;;;13.90;47.46;101599.13;4990928;28;20058;-66
2021/11/08 00:40:27;;;;;;;6.13;2.80;;;;;;;13.91;47.69;101597.25;5006736;28;20053;-66
2021/11/08 00:42:54;;;;;;;9.27;3.00;;;;;;;13.92;47.47;101596.25;4987195;28;20524;-66
2021/11/08 00:45:23;;;;;;;8.82;3.60;;;;;;;13.92;47.19;101594.41;4990997;28;20056;-66
2021/11/08 00:47:50;;;;;;;7.80;2.78;;;;;;;13.92;47.26;101594.41;5001481;28;20642;-66
2021/11/08 00:50:17;;;;;;;9.02;2.67;;;;;;;13.92;47.44;101597.13;4994962;28;20124;-66
2021/11/08 00:52:45;;;;;;;9.52;3.08;;;;;;;13.91;47.79;101600.88;4988696;28;20042;-66
2021/11/08 00:55:11;;;;;;;8.95;3.08;;;;;;;13.91;47.46;101603.59;4999827;28;20101;-66
2021/11/08 00:57:39;;;;;;;7.82;2.72;;;;;;;13.91;47.43;101600.88;4995051;28;20072;-67
2021/11/08 01:00:09;;;;;;;7.97;2.85;;;;;;;13.93;47.26;101608.94;4962779;28;20575;-66
2021/11/08 01:02:36;;;;;;;7.28;3.10;;;;;;;13.90;47.35;101610.03;4974210;28;20046;-66
2021/11/08 01:05:04;;;;;;;7.55;3.15;;;;;;;13.91;47.91;101609.06;4995037;28;20101;-66
2021/11/08 01:07:31;;;;;;;7.72;3.05;;;;;;;13.91;47.83;101609.06;4997899;28;20046;-66
2021/11/08 01:09:59;;;;;;;9.38;3.13;;;;;;;13.91;47.86;101609.06;4984352;28;20054;-66
2021/11/08 01:12:27;;;;;;;6.20;2.78;;;;;;;13.91;47.62;101619.97;4996840;28;20386;-66
2021/11/08 01:14:54;;;;;;;8.93;2.63;;;;;;;13.91;47.66;101625.44;4995747;28;20054;-66
2021/11/08 01:17:21;;;;;;;8.23;3.22;;;;;;;13.92;47.64;101618.09;4994201;28;20080;-66
2021/11/08 01:19:48;;;;;;;8.25;3.08;;;;;;;13.93;47.82;101625.31;4999057;28;20057;-66
2021/11/08 01:22:20;;;;;;;9.15;3.35;;;;;;;13.92;48.03;101629.91;5001749;28;20042;-66
2021/11/08 01:24:56;;;;;;;9.68;3.00;;;;;;;13.90;48.17;101620.97;4988680;28;20054;-66
2021/11/08 01:27:33;;;;;;;8.00;2.75;;;;;;;13.93;47.87;101617.13;4995412;28;20050;-66
2021/11/08 01:30:01;;;;;;;6.10;3.03;;;;;;;13.92;48.20;101629.91;4989314;28;20129;-66
2021/11/08 01:32:28;;;;;;;7.32;2.88;;;;;;;13.93;47.87;101636.22;4997673;28;20137;-66
2021/11/08 01:34:55;;;;;;;7.55;2.95;;;;;;;13.93;48.19;101636.22;4970888;28;20513;-66
2021/11/08 01:37:22;;;;;;;7.95;2.92;;;;;;;13.94;48.13;101629.78;4992869;28;20096;-66
2021/11/08 01:39:49;;;;;;;6.63;2.63;;;;;;;13.94;48.09;101636.13;5006419;28;20282;-66
2021/11/08 01:42:16;;;;;;;6.80;2.67;;;;;;;13.96;47.83;101631.44;4997414;28;20047;-66
2021/11/08 01:44:43;;;;;;;8.55;2.95;;;;;;;13.98;48.06;101632.22;4987570;28;20121;-66
2021/11/08 01:47:10;;;;;;;8.93;3.08;;;;;;;13.97;48.00;101630.47;4999128;28;20441;-66
2021/11/08 01:49:41;;;;;;;6.20;2.60;;;;;;;14.00;48.18;101640.31;4991369;28;20054;-66
2021/11/08 01:52:10;;;;;;;6.80;2.90;;;;;;;14.01;48.18;101636.56;4994822;28;20046;-66
2021/11/08 01:54:38;;;;;;;8.77;3.75;;;;;;;14.00;47.98;101627.50;4989517;28;20062;-66
2021/11/08 01:57:05;;;;;;;7.25;2.85;;;;;;;14.00;48.56;101632.97;4996461;28;20074;-66
2021/11/08 01:59:32;;;;;;;8.38;3.10;;;;;;;14.01;48.29;101628.38;4993429;28;20092;-66
2021/11/08 02:02:00;;;;;;;6.15;2.47;;;;;;;14.03;48.35;101637.34;4993776;28;20060;-66
2021/11/08 02:04:27;;;;;;;5.88;2.60;;;;;;;14.04;48.32;101639.09;4985679;28;20092;-65
2021/11/08 02:06:53;;;;;;;7.95;2.65;;;;;;;14.05;48.37;101638.13;4987136;28;20108;-66
2021/11/08 02:09:20;;;;;;;7.30;2.80;;;;;;;14.05;48.24;101635.41;4998627;28;20085;-66
2021/11/08 02:11:49;;;;;;;7.20;2.47;;;;;;;14.06;48.39;101635.31;4992379;28;20051;-66
2021/11/08 02:14:15;;;;;;;7.88;2.80;;;;;;;14.07;48.20;101634.31;4979303;28;20552;-66
2021/11/08 02:16:42;;;;;;;6.25;2.95;;;;;;;14.08;48.25;101646.13;4980285;28;20137;-66
2021/11/08 02:19:09;;;;;;;6.65;2.78;;;;;;;14.08;48.16;101643.41;4986177;28;20050;-66
2021/11/08 02:21:36;;;;;;;8.57;2.90;;;;;;;14.09;47.79;101634.19;4983399;28;20556;-66
2021/11/08 02:24:08;;;;;;;7.85;2.85;;;;;;;14.09;48.20;101634.19;4979902;28;20054;-66
2021/11/08 02:26:35;;;;;;;7.68;2.63;;;;;;;14.08;47.93;101646.13;5000151;28;20459;-66
2021/11/08 02:29:02;;;;;;;8.27;2.67;;;;;;;14.09;47.88;101640.53;4994323;28;20513;-66
2021/11/08 02:31:30;;;;;;;8.52;2.70;;;;;;;14.08;47.92;101646.97;4998512;28;20497;-66
2021/11/08 02:33:57;;;;;;;8.18;2.55;;;;;;;14.09;48.44;101639.66;4993252;28;20050;-66
2021/11/08 02:36:24;;;;;;;9.48;2.97;;;;;;;14.09;48.12;101642.38;4992615;28;20460;-66
2021/11/08 02:38:54;;;;;;;8.57;2.78;;;;;;;14.10;48.21;101647.75;4999030;28;20828;-66
2021/11/08 02:41:21;;;;;;;7.20;2.50;;;;;;;14.08;48.36;101644.25;4995142;28;20054;-66
2021/11/08 02:43:48;;;;;;;7.68;3.08;;;;;;;14.09;48.23;101648.72;4996266;28;20108;-66
2021/11/08 02:46:16;;;;;;;7.63;2.58;;;;;;;14.10;48.40;101649.59;4997898;28;20130;-66
2021/11/08 02:48:46;;;;;;;7.47;2.72;;;;;;;14.12;48.42;101642.19;5001312;28;20181;-66
2021/11/08 02:53:48;;;;;;;9.48;3.10;;;;;;;14.13;48.61;101643.06;4997128;28;20120;-66
2021/11/08 02:56:15;;;;;;;10.38;3.15;;;;;;;14.12;48.45;101641.31;4999943;28;20109;-66
2021/11/08 02:58:44;;;;;;;8.00;2.85;;;;;;;14.13;48.07;101643.94;4993370;28;20081;-66
2021/11/08 03:01:19;;;;;;;8.43;2.70;;;;;;;14.15;48.12;101641.09;4993271;28;20105;-66
2021/11/08 03:03:54;;;;;;;7.45;2.72;;;;;;;14.13;48.21;101646.66;4984461;28;20056;-66
2021/11/08 03:06:31;;;;;;;8.63;2.60;;;;;;;14.14;48.24;101653.88;4991593;28;20054;-66
2021/11/08 03:09:11;;;;;;;7.15;2.83;;;;;;;14.16;48.28;101653.78;4993273;28;20128;-66
2021/11/08 03:11:38;;;;;;;9.18;2.97;;;;;;;14.12;48.40;101655.84;4998468;28;20055;-66
2021/11/08 03:14:07;;;;;;;8.43;3.00;;;;;;;14.13;48.32;101659.44;4992142;28;20069;-66
2021/11/08 03:19:13;;;;;;;9.85;2.95;;;;;;;14.12;48.35;101668.63;4995411;28;20113;-66
2021/11/08 03:21:40;;;;;;;10.40;2.95;;;;;;;14.09;48.18;101673.31;4996772;28;20057;-66
2021/11/08 03:24:11;;;;;;;10.02;2.83;;;;;;;14.10;48.26;101657.78;5002534;28;20108;-66
2021/11/08 03:26:48;;;;;;;5.65;2.47;;;;;;;14.10;47.93;101660.53;5005459;28;20071;-66
2021/11/08 03:29:16;;;;;;;8.82;3.10;;;;;;;14.10;48.41;101657.78;4992068;28;20058;-66
2021/11/08 03:31:46;;;;;;;9.43;2.92;;;;;;;14.11;48.15;101654.09;5001657;28;20074;-66
2021/11/08 03:34:13;;;;;;;8.88;2.83;;;;;;;14.11;48.49;101656.81;4997062;28;20069;-66
2021/11/08 03:36:40;;;;;;;8.50;3.42;;;;;;;14.10;48.26;101653.22;5007551;28;20100;-66
2021/11/08 03:39:07;;;;;;;7.85;2.72;;;;;;;14.10;48.29;101655.94;4999771;28;20045;-66
2021/11/08 03:41:35;;;;;;;9.95;3.00;;;;;;;14.10;48.56;101647.75;4997294;28;20058;-66
2021/11/08 03:44:02;;;;;;;7.47;3.13;;;;;;;14.11;48.48;101659.53;4993362;28;20054;-66
2021/11/08 03:46:29;;;;;;;8.02;2.90;;;;;;;14.10;48.55;101658.66;4992031;28;20050;-66
2021/11/08 03:48:56;;;;;;;6.25;2.67;;;;;;;14.11;48.23;101665.00;5007160;28;20057;-66
2021/11/08 03:51:23;;;;;;;12.30;3.25;;;;;;;14.12;48.35;101668.63;4992455;28;20450;-66
2021/11/08 03:53:50;;;;;;;7.72;2.72;;;;;;;14.12;48.60;101668.63;4994680;28;20474;-66
2021/11/08 03:56:17;;;;;;;10.70;3.20;;;;;;;14.12;48.45;101674.97;5002751;28;20096;-66
2021/11/08 03:58:44;;;;;;;11.02;3.50;;;;;;;14.12;48.52;101671.34;4976264;28;20050;-66
2021/11/08 04:01:11;;;;;;;7.57;3.10;;;;;;;14.10;48.67;101675.06;4991514;28;20053;-66
2021/11/08 04:03:39;;;;;;;9.98;3.53;;;;;;;14.11;48.83;101684.13;4993393;28;20082;-66
2021/11/08 04:06:05;;;;;;;6.65;2.58;;;;;;;14.12;48.29;101682.28;4985810;28;20093;-66
2021/11/08 04:08:32;;;;;;;8.25;3.05;;;;;;;14.10;48.23;101688.72;5001319;28;20046;-66
2021/11/08 04:10:59;;;;;;;9.98;3.63;;;;;;;14.11;48.43;101678.66;5004186;28;20112;-66
2021/11/08 04:13:30;;;;;;;10.05;3.40;;;;;;;14.13;48.32;101687.63;4983323;28;20046;-66
2021/11/08 04:16:00;;;;;;;8.40;3.20;;;;;;;14.12;48.52;101683.16;4998127;28;20072;-66
2021/11/08 04:18:28;;;;;;;8.75;3.45;;;;;;;14.12;48.40;101685.00;4989840;28;20168;-66
2021/11/08 04:20:57;;;;;;;10.45;3.30;;;;;;;14.12;48.79;101677.69;5002102;28;20076;-66
2021/11/08 04:23:25;;;;;;;9.75;3.75;;;;;;;14.12;48.39;101679.53;5005787;28;20499;-66
2021/11/08 04:25:54;;;;;;;9.43;3.92;;;;;;;14.13;48.63;101676.72;4977550;28;20079;-66
2021/11/08 04:28:21;;;;;;;9.90;3.17;;;;;;;14.10;48.64;101680.50;4996152;28;20719;-66
2021/11/08 04:30:48;;;;;;;11.73;3.90;;;;;;;14.11;48.41;101675.94;5008781;28;20050;-66
2021/11/08 04:33:45;;;;;;;11.52;4.30;;;;;;;14.13;48.27;101678.56;5006175;28;20081;-66
2021/11/08 04:39:10;;;;;;;8.25;3.78;;;;;;;14.10;48.37;101685.09;4982879;28;20069;-66
2021/11/08 05:22:59;;;;;;;6.75;2.95;;;;;;;13.97;48.84;101697.84;4991733;28;20076;-66
2021/11/08 05:30:39;;;;;;;11.75;4.13;;;;;;;13.98;48.96;101711.41;4992896;28;20685;-66
2021/11/08 05:33:06;;;;;;;8.77;3.92;;;;;;;13.98;48.84;101716.88;5006453;28;20049;-66
2021/11/08 05:35:33;;;;;;;10.18;3.80;;;;;;;13.97;48.96;101715.09;4992579;28;20042;-66
2021/11/08 05:38:05;;;;;;;9.13;3.75;;;;;;;13.97;49.13;101709.66;4991934;28;20124;-66
2021/11/08 05:40:33;;;;;;;9.83;3.50;;;;;;;13.97;48.66;101708.78;5000534;28;20488;-66
2021/11/08 05:43:03;;;;;;;7.40;3.25;;;;;;;13.98;48.93;101719.59;4997930;28;20808;-66
2021/11/08 05:45:33;;;;;;;9.48;3.42;;;;;;;13.98;48.93;101715.97;4997302;28;20042;-67
2021/11/08 05:48:04;;;;;;;8.80;3.58;;;;;;;13.98;48.62;101721.44;4996988;28;20050;-66
2021/11/08 05:50:33;;;;;;;8.75;3.22;;;;;;;13.99;48.76;101723.19;4993161;28;20073;-66
2021/11/08 05:53:01;;;;;;;7.60;3.45;;;;;;;13.97;48.60;101719.69;4997832;28;20046;-66
2021/11/08 05:55:35;;;;;;;11.68;3.85;;;;;;;13.96;48.49;101721.53;4991022;28;20050;-66
2021/11/08 06:50:10;;;;;;;13.05;4.10;;;;;;;13.83;48.96;101797.06;4980299;28;20062;-66
2021/11/08 06:52:39;;;;;;;9.73;4.55;;;;;;;13.84;48.74;101796.06;4981598;28;20058;-66
2021/11/08 06:55:06;;;;;;;10.57;4.18;;;;;;;13.84;49.21;101801.50;4972868;28;20054;-66
2021/11/08 06:58:01;;;;;;;9.52;4.10;;;;;;;13.85;49.16;101789.63;4994486;28;20053;-66
2021/11/08 07:00:25;;;;;;;12.10;4.22;;;;;;;13.83;49.27;101791.59;4994356;28;20097;-66
2021/11/08 07:02:51;;;;;;;7.78;3.50;;;;;;;13.83;49.35;101788.88;5004387;28;20054;-66
2021/11/08 07:05:18;;;;;;;9.38;4.28;;;;;;;13.83;49.34;101788.88;4996317;28;20046;-66
2021/11/08 07:07:45;;;;;;;10.82;4.40;;;;;;;13.84;49.19;101786.97;4993129;28;20494;-66
2021/11/08 07:10:19;;;;;;;9.05;3.58;;;;;;;13.84;49.14;101786.97;5003299;28;20054;-66
2021/11/08 07:12:48;;;;;;;9.65;4.10;;;;;;;13.84;48.93;101784.25;4985589;28;20049;-66
2021/11/08 07:15:19;;;;;;;10.20;4.70;;;;;;;13.84;48.94;101792.44;4997187;28;20053;-66
2021/11/08 07:17:50;;;;;;;10.18;4.28;;;;;;;13.85;49.42;101796.94;4997001;28;20286;-66
2021/11/08 07:20:21;;;;;;;10.32;3.85;;;;;;;13.83;49.29;101791.59;4997833;28;20063;-66
2021/11/08 07:22:48;;;;;;;6.88;3.22;;;;;;;13.83;48.83;101797.06;4984404;28;20402;-66
2021/11/08 07:25:15;;;;;;;10.85;4.03;;;;;;;13.82;49.04;101800.75;5004453;28;20050;-66
2021/11/08 07:27:42;;;;;;;7.95;3.40;;;;;;;13.82;48.78;101808.94;4980810;28;20077;-66
2021/11/08 07:30:10;;;;;;;8.88;3.70;;;;;;;13.83;49.02;101809.81;4985089;28;20050;-66
2021/11/08 07:32:37;;;;;;;11.07;3.90;;;;;;;13.83;49.02;101812.56;5004005;28;20047;-66
2021/11/08 07:35:05;;;;;;;10.18;4.10;;;;;;;13.82;49.27;101819.00;4988239;28;20671;-66
2021/11/08 07:37:32;;;;;;;9.30;3.70;;;;;;;13.82;49.22;101821.72;4999701;28;20309;-66
2021/11/08 07:39:59;;;;;;;11.98;4.22;;;;;;;13.80;49.20;101829.13;5002133;28;20090;-66
2021/11/08 07:42:25;;;;;;;8.25;3.13;;;;;;;13.81;49.25;101842.69;4990900;28;20502;-66
2021/11/08 07:44:52;;;;;;;8.13;3.78;;;;;;;13.80;49.02;101835.47;4993865;28;20077;-66
2021/11/08 07:47:19;;;;;;;9.68;4.03;;;;;;;13.80;49.33;101831.84;4991862;28;20129;-66
2021/11/08 07:49:45;;;;;;;8.95;3.92;;;;;;;13.80;49.31;101838.19;4998951;28;20054;-66
2021/11/08 07:52:12;;;;;;;8.38;3.80;;;;;;;13.80;49.24;101838.19;4990607;28;20085;-66
2021/11/08 07:54:39;;;;;;;10.10;4.07;;;;;;;13.81;49.68;101830.88;4989211;28;20417;-66
2021/11/08 07:57:06;;;;;;;12.77;4.85;;;;;;;13.80;49.25;101843.66;4991631;28;20050;-66
2021/11/08 07:59:33;;;;;;;10.57;3.45;;;;;;;13.82;49.32;101851.75;4994991;28;20062;-66
2021/11/08 08:02:02;;;;;;;10.75;4.30;;;;;;;13.83;49.72;101854.38;4999420;28;20053;-67
2021/11/08 08:04:29;;;;;;;10.00;3.83;;;;;;;13.82;49.76;101849.88;4990093;28;20046;-66
2021/11/08 08:06:57;;;;;;;10.57;3.55;;;;;;;13.85;49.74;101859.72;5011177;28;20057;-66
2021/11/08 08:09:23;;;;;;;11.98;3.60;;;;;;;13.85;49.84;101863.31;5002091;28;20061;-66
2021/11/08 08:11:50;;;;;;;8.77;3.30;;;;;;;13.87;49.59;101863.22;5005097;28;20050;-66
2021/11/08 08:14:18;;;;;;;11.32;3.88;;;;;;;13.90;49.69;101871.22;4996854;28;20045;-66
2021/11/08 08:16:45;;;;;;;9.45;3.65;;;;;;;13.91;49.86;101873.88;4997903;28;20092;-66
2021/11/08 08:19:11;;;;;;;10.30;3.83;;;;;;;13.92;49.77;101875.59;4986792;28;20085;-66
2021/11/08 08:21:38;;;;;;;11.45;3.50;;;;;;;13.95;49.92;101877.25;5002900;28;20399;-66
2021/11/08 08:24:05;;;;;;;10.00;3.30;;;;;;;13.97;49.64;101876.19;4992652;28;20479;-67
2021/11/08 08:26:35;;;;;;;11.18;3.70;;;;;;;14.01;49.56;101885.03;4991618;28;20058;-66
2021/11/08 08:29:06;;;;;;;14.38;3.70;;;;;;;14.02;49.79;101882.22;4989148;28;20492;-67
2021/11/08 08:31:39;;;;;;;12.23;3.60;;;;;;;14.04;49.98;101882.13;4999569;28;20054;-66
2021/11/08 08:34:07;;;;;;;9.60;3.45;;;;;;;14.03;49.65;101883.97;4965993;28;20502;-66
2021/11/08 08:36:34;;;;;;;8.40;3.42;;;;;;;14.06;49.70;101872.88;4994559;28;20053;-67
2021/11/08 08:39:02;;;;;;;9.05;3.25;;;;;;;14.08;49.76;101878.25;4992150;28;20089;-66
2021/11/08 08:41:29;;;;;;;7.47;3.45;;;;;;;14.09;49.72;101880.84;4972410;28;20084;-66
2021/11/08 08:43:56;;;;;;;7.93;3.00;;;;;;;14.10;49.41;101871.69;4989873;28;20072;-66
2021/11/08 08:46:22;;;;;;;11.32;3.78;;;;;;;14.14;49.66;101876.94;4989380;28;20097;-66
2021/11/08 08:48:50;;;;;;;8.13;3.35;;;;;;;14.14;49.96;101872.38;4994087;28;20058;-66
2021/11/08 08:51:17;;;;;;;8.02;3.13;;;;;;;14.15;49.54;101874.13;4978267;28;20059;-66
2021/11/08 08:53:44;;;;;;;9.23;3.30;;;;;;;14.17;49.41;101879.47;4982589;28;20073;-66
2021/11/08 08:56:20;;;;;;;9.95;3.38;;;;;;;14.19;49.73;101893.91;4983209;28;20541;-66
2021/11/08 08:58:48;;;;;;;11.13;3.05;;;;;;;14.20;49.47;101892.94;4992670;28;20048;-67
2021/11/08 09:01:15;;;;;;;10.45;3.75;;;;;;;14.20;49.46;101915.66;4990079;28;20060;-66
2021/11/08 09:03:42;;;;;;;11.25;3.78;;;;;;;14.22;49.63;101908.25;4971402;28;20054;-67
2021/11/08 09:06:09;;;;;;;8.73;2.90;;;;;;;14.24;49.57;101916.34;4988614;28;20050;-66
2021/11/08 09:08:38;;;;;;;10.10;3.20;;;;;;;14.23;49.29;101901.81;4978006;28;20053;-66
2021/11/08 09:11:04;;;;;;;9.70;3.58;;;;;;;14.24;49.59;101911.75;4984436;28;20046;-66
2021/11/08 09:13:32;;;;;;;11.27;3.65;;;;;;;14.25;49.36;101916.22;4994227;28;20120;-66
2021/11/08 09:15:59;;;;;;;11.05;3.70;;;;;;;14.27;49.07;101919.75;4989895;28;20062;-66
2021/11/08 09:18:26;;;;;;;11.95;4.18;;;;;;;14.29;49.24;101922.38;4999867;28;20057;-66
2021/11/08 09:20:53;;;;;;;10.07;3.60;;;;;;;14.28;49.15;101918.75;4992996;28;20086;-66
2021/11/08 09:23:19;;;;;;;13.07;4.22;;;;;;;14.31;49.75;101923.16;4990597;28;20061;-66
2021/11/08 09:25:46;;;;;;;10.18;3.40;;;;;;;14.32;49.33;101923.06;5005661;28;20046;-67
2021/11/08 09:28:13;;;;;;;6.70;3.03;;;;;;;14.34;49.31;101910.16;4992052;28;20042;-66
2021/11/08 09:30:44;;;;;;;9.52;4.18;;;;;;;14.38;49.76;101919.03;4994691;28;20053;-66
2021/11/08 09:33:11;;;;;;;10.15;3.83;;;;;;;14.39;49.87;101920.84;4997828;28;20519;-66
2021/11/08 09:35:44;;;;;;;11.45;3.42;;;;;;;14.43;49.47;101922.38;4988387;28;20046;-66
2021/11/08 09:38:11;;;;;;;11.05;3.40;;;;;;;14.44;49.73;101921.41;4982134;28;20077;-66
2021/11/08 09:40:40;;;;;;;10.75;3.47;;;;;;;14.50;49.92;101918.25;4997832;28;20050;-66
2021/11/08 09:43:09;;;;;;;10.20;3.47;;;;;;;14.54;50.07;101918.94;4996654;28;20058;-66
2021/11/08 09:45:37;;;;;;;12.82;3.65;;;;;;;14.57;49.74;101914.16;4991084;28;20046;-66
2021/11/08 09:48:04;;;;;;;8.55;3.20;;;;;;;14.61;49.86;101921.16;4991185;28;20124;-66
2021/11/08 09:50:34;;;;;;;9.60;3.65;;;;;;;14.67;49.65;101918.00;4993555;28;20054;-66
2021/11/08 09:53:03;;;;;;;11.45;3.67;;;;;;;14.70;49.66;101916.94;4992605;28;20525;-66
2021/11/08 09:55:31;;;;;;;13.73;4.00;;;;;;;14.75;49.73;101914.75;4993339;28;20120;-66
2021/11/08 09:57:58;;;;;;;8.68;3.50;;;;;;;14.80;49.68;101913.47;4996985;28;20444;-66
2021/11/08 10:00:46;;;;;;;8.82;3.65;;;;;;;14.84;49.46;101906.81;4981727;28;20344;-66
2021/11/08 10:03:23;;;;;;;7.47;3.47;;;;;;;14.91;49.83;101903.66;5001180;28;20092;-66
2021/11/08 10:05:52;;;;;;;10.35;3.58;;;;;;;14.96;49.70;101905.09;4992790;28;20050;-66
2021/11/08 10:08:26;;;;;;;9.05;3.80;;;;;;;15.03;49.30;101909.16;4980828;28;20053;-66
2021/11/08 10:10:56;;;;;;;9.02;3.83;;;;;;;15.06;49.53;101906.25;5004062;28;20141;-66
2021/11/08 10:13:26;;;;;;;10.43;3.78;;;;;;;15.12;49.61;101905.81;4991970;28;20444;-67
2021/11/08 10:16:03;;;;;;;8.70;3.22;;;;;;;15.18;49.24;101905.38;4974235;28;20069;-68
2021/11/08 10:18:31;;;;;;;8.25;3.28;;;;;;;15.21;49.59;101907.91;4992542;28;20100;-65
2021/11/08 10:21:28;;;;;;;10.48;3.63;;;;;;;15.26;49.42;101904.84;4992110;28;20046;-65
2021/11/08 10:24:00;;;;;;;12.70;4.00;;;;;;;15.35;49.35;101900.59;4972202;28;20054;-65
2021/11/08 10:26:33;;;;;;;10.70;3.65;;;;;;;15.40;49.67;101907.47;4999888;28;20065;-65
2021/11/08 10:29:09;;;;;;;7.88;3.47;;;;;;;15.48;49.50;101906.97;4996310;28;20054;-66
2021/11/08 10:31:45;;;;;;;11.98;4.00;;;;;;;15.55;49.08;101902.84;4989981;28;20480;-66
2021/11/08 10:34:13;;;;;;;7.93;3.25;;;;;;;15.58;49.43;101903.47;4999622;28;20045;-66
2021/11/08 10:36:40;;;;;;;10.40;3.33;;;;;;;15.65;49.33;101900.31;5000729;28;20050;-66
2021/11/08 10:39:09;;;;;;;11.23;3.63;;;;;;;15.71;49.05;101899.88;5002398;28;20057;-66
2021/11/08 10:41:41;;;;;;;9.85;3.20;;;;;;;15.74;48.63;101911.47;5001646;28;20074;-65
2021/11/08 10:44:17;;;;;;;8.68;3.78;;;;;;;15.80;48.47;101912.91;4992816;28;20050;-65
2021/11/08 10:46:47;;;;;;;8.52;3.15;;;;;;;15.82;48.62;101916.38;4989840;28;20061;-65
2021/11/08 10:49:17;;;;;;;10.35;4.15;;;;;;;15.84;48.66;101907.09;4997228;28;20076;-66
2021/11/08 10:51:50;;;;;;;8.52;3.35;;;;;;;15.87;48.20;101904.13;4991784;28;20086;-66
2021/11/08 10:54:41;;;;;;;7.75;3.10;;;;;;;15.87;48.29;101908.72;4989205;28;20120;-65
2021/11/08 10:57:13;;;;;;;8.13;2.92;;;;;;;15.88;47.89;101908.63;4991187;28;20050;-65
2021/11/08 10:59:44;;;;;;;9.43;2.83;;;;;;;15.87;48.48;101915.09;4973164;28;20062;-65
2021/11/08 11:02:13;;;;;;;8.45;3.15;;;;;;;15.88;48.05;101913.22;4988784;28;20058;-65
2021/11/08 11:04:46;;;;;;;10.35;3.45;;;;;;;15.90;48.22;101908.50;4973574;28;20465;-66
2021/11/08 11:07:24;;;;;;;9.35;3.60;;;;;;;15.89;47.91;101912.25;4991681;28;20110;-66
2021/11/08 11:10:00;;;;;;;10.45;3.40;;;;;;;15.89;47.94;101913.13;5001200;28;20057;-65
2021/11/08 11:12:29;;;;;;;12.13;3.95;;;;;;;15.88;48.09;101907.75;4984920;28;20046;-65
2021/11/08 11:14:59;;;;;;;9.05;3.33;;;;;;;15.89;47.89;101890.34;4987362;28;20133;-65
2021/11/08 11:17:34;;;;;;;10.60;3.70;;;;;;;15.88;47.98;101899.53;4996232;28;20071;-67
2021/11/08 11:20:08;;;;;;;11.10;3.58;;;;;;;15.89;47.69;101898.56;4983941;28;20058;-66
2021/11/08 11:22:40;;;;;;;11.30;3.30;;;;;;;15.89;47.75;101902.16;4989807;28;20356;-66
2021/11/08 11:25:09;;;;;;;8.63;3.47;;;;;;;15.89;47.67;101904.03;4989018;28;20054;-66
2021/11/08 11:27:49;;;;;;;7.22;2.60;;;;;;;15.92;47.42;101895.56;4991359;28;20494;-66
2021/11/08 11:30:24;;;;;;;9.63;3.60;;;;;;;15.93;47.34;101900.94;4978200;28;20493;-66
2021/11/08 11:33:03;;;;;;;9.45;3.20;;;;;;;15.92;47.31;101899.19;4971599;28;20069;-66
2021/11/08 11:35:37;;;;;;;8.75;3.05;;;;;;;15.94;47.51;101899.97;5005945;28;20045;-66
2021/11/08 11:38:07;;;;;;;8.37;3.00;;;;;;;15.92;47.81;101901.03;4920630;28;1884301;-66
2021/11/08 11:40:40;;;;;;;8.95;3.30;;;;;;;15.95;47.77;101901.72;4998104;28;20050;-66
2021/11/08 11:43:10;;;;;;;8.77;2.90;;;;;;;15.95;47.69;101895.34;4992986;28;20101;-66
2021/11/08 11:45:49;;;;;;;8.00;3.50;;;;;;;15.98;47.07;101892.38;4991343;28;20078;-66
2021/11/08 11:48:23;;;;;;;8.68;2.70;;;;;;;15.96;47.45;101895.25;4990102;28;20054;-66
2021/11/08 11:51:09;;;;;;;6.82;3.10;;;;;;;15.98;47.61;101887.78;4975851;28;20042;-67
2021/11/08 11:53:36;;;;;;;9.27;3.17;;;;;;;16.01;47.56;101889.44;4991569;28;20055;-66
2021/11/08 11:56:04;;;;;;;7.40;3.20;;;;;;;16.02;47.68;101904.00;4995326;28;20144;-66
2021/11/08 11:58:31;;;;;;;8.52;3.47;;;;;;;16.04;47.64;101897.44;4990960;28;20422;-66
2021/11/08 12:00:59;;;;;;;8.95;3.17;;;;;;;16.06;48.05;101889.94;4984322;28;20046;-66
2021/11/08 12:03:39;;;;;;;7.20;2.88;;;;;;;16.09;47.44;101903.44;4996942;28;20105;-66
2021/11/08 12:06:14;;;;;;;6.88;2.45;;;;;;;16.09;47.10;101900.69;4982749;28;20073;-66
2021/11/08 12:08:42;;;;;;;10.18;2.88;;;;;;;16.09;47.77;101895.22;4995512;28;20489;-66
2021/11/08 12:11:10;;;;;;;9.60;3.13;;;;;;;16.11;47.43;101896.00;4994286;28;20053;-66
2021/11/08 12:13:54;;;;;;;8.95;3.35;;;;;;;16.14;47.20;101903.13;4996972;28;20054;-66
2021/11/08 12:16:26;;;;;;;10.68;3.60;;;;;;;16.15;47.45;101907.56;4990809;28;20046;-66
2021/11/08 12:18:54;;;;;;;9.27;3.00;;;;;;;16.13;47.22;101904.97;4972834;28;20066;-66
2021/11/08 12:21:35;;;;;;;9.60;3.22;;;;;;;16.15;47.10;101905.72;4988951;28;20124;-66
2021/11/08 12:24:16;;;;;;;11.05;3.00;;;;;;;16.16;46.75;101906.59;4986335;28;20058;-65
2021/11/08 12:26:43;;;;;;;10.13;3.00;;;;;;;16.15;47.44;101910.31;5006899;28;20054;-65
2021/11/08 12:29:18;;;;;;;12.45;3.25;;;;;;;16.17;46.85;101906.50;4996036;28;20054;-66
2021/11/08 12:32:03;;;;;;;8.38;2.95;;;;;;;16.16;46.65;101902.00;4988814;28;20051;-66
2021/11/08 12:34:41;;;;;;;6.75;2.97;;;;;;;16.17;46.91;101895.53;4974263;28;20055;-66
2021/11/08 12:37:08;;;;;;;7.55;3.08;;;;;;;16.14;47.40;101898.47;4982526;28;20494;-67
2021/11/08 12:39:36;;;;;;;8.23;3.20;;;;;;;16.16;46.85;101892.91;4981086;28;20134;-66
2021/11/08 12:42:12;;;;;;;13.55;3.40;;;;;;;16.15;46.86;101900.25;4990879;28;20054;-65
2021/11/08 12:44:45;;;;;;;9.00;3.55;;;;;;;16.16;46.45;101895.63;4994896;28;20046;-66
2021/11/08 12:47:13;;;;;;;8.57;3.17;;;;;;;16.14;47.07;101898.47;5003530;28;20057;-66
2021/11/08 12:49:51;;;;;;;8.45;3.38;;;;;;;16.18;46.54;101896.41;4987910;28;20058;-66
2021/11/08 12:52:21;;;;;;;8.13;3.42;;;;;;;16.16;47.12;101891.03;4998715;28;20167;-65
2021/11/08 12:55:08;;;;;;;13.13;3.50;;;;;;;16.15;46.80;101893.88;5001153;28;20555;-66
2021/11/08 12:57:37;;;;;;;13.00;3.42;;;;;;;16.15;46.59;101886.53;4972534;28;20355;-66
2021/11/08 13:00:03;;;;;;;9.63;3.40;;;;;;;16.14;46.30;101883.94;4988851;28;20088;-66
2021/11/08 13:02:41;;;;;;;9.35;3.47;;;;;;;16.17;46.31;101890.03;4996545;28;20386;-66
2021/11/08 13:05:12;;;;;;;9.70;3.05;;;;;;;16.15;46.85;101886.53;4984855;28;20051;-65
2021/11/08 13:07:43;;;;;;;7.30;2.80;;;;;;;16.15;47.11;101881.06;4990220;28;20104;-66
2021/11/08 13:10:26;;;;;;;7.50;2.90;;;;;;;16.16;46.67;101890.16;4988149;28;20090;-66
2021/11/08 13:12:55;;;;;;;6.32;2.53;;;;;;;16.12;47.05;101870.34;4991554;28;20045;-66
2021/11/08 13:15:28;;;;;;;7.13;2.85;;;;;;;16.17;47.08;101868.13;4994325;28;20105;-66
2021/11/08 13:17:54;;;;;;;7.68;2.78;;;;;;;16.14;46.86;101867.50;4992381;28;20049;-66
2021/11/08 13:20:24;;;;;;;10.30;3.15;;;;;;;16.18;46.77;101866.25;4998211;28;20062;-66